首页
METAR-TAF:

METAR-TAF

机场 :

迈克蒂亚西蒙·玻利瓦尔国际机场

卡拉卡斯, 委内瑞拉

纬度: 10-36N, 经度: 066-59W, 海拔: 43米

当前天气观测

该预报发布于10分钟前的09:00 UTC
静风
温度 24°C
湿度 89%
气压 1016 hPa
能见度10公里或以上
少量云层高于1600英尺

METAR: SVMI 190900Z 00000KT 9999 FEW016 24/22 Q1016

时间: 05:10 (09:10 UTC)

预报

该预报发布于11小时和10分钟前的22:00 UTC
预报有效从18日的 00点(UTC)到 19日的 00点(UTC)
风速3节,风向
能见度10公里或以上
多云层高于1600英尺
成为
从 18日的 00点(UTC)到 18日的 04点(UTC)
风速10节,风向
散云层高于1600英尺

TAF: SVMI 182200Z 1800/1900 09003KT 9999 BKN016 TX28/0818Z TN23/0809Z BECMG 1800/1804 09010KT SCT016

超过4000个机场的气象观测和天气预报(METAR&TAF报告)。

可查询的气象台以黄色和红色小点在地图上表示。

将鼠标移到小点上方,可查看气象台名称。

然后点击查看天气观测和预报。

如需切换地图:点击带黑十字的绿色按钮放大地图;点击带横线的绿色按钮缩小地图;或者点击绿色箭头查看邻近地区的地图。


METAR-TAF: